sensor_id;sensor_type;location;lat;lon;timestamp;temperature;humidity
32107;DHT22;18622;51.998;10.440;2022-09-01T02:18:45;11.50;92.60
32107;DHT22;18622;51.998;10.440;2022-09-01T02:21:15;11.40;92.70
32107;DHT22;18622;51.998;10.440;2022-09-01T02:23:51;11.40;92.80
32107;DHT22;18622;51.998;10.440;2022-09-01T02:26:23;11.40;93.00
32107;DHT22;18622;51.998;10.440;2022-09-01T02:28:52;11.40;93.10
32107;DHT22;18622;51.998;10.440;2022-09-01T02:31:21;11.40;93.20
32107;DHT22;18622;51.998;10.440;2022-09-01T02:33:49;11.40;93.20
32107;DHT22;18622;51.998;10.440;2022-09-01T02:36:17;11.40;93.20
32107;DHT22;18622;51.998;10.440;2022-09-01T02:38:46;11.40;93.20
32107;DHT22;18622;51.998;10.440;2022-09-01T02:41:14;11.40;93.30
32107;DHT22;18622;51.998;10.440;2022-09-01T02:43:44;11.40;93.40
32107;DHT22;18622;51.998;10.440;2022-09-01T02:46:13;11.30;93.40
32107;DHT22;18622;51.998;10.440;2022-09-01T02:48:42;11.30;93.40
32107;DHT22;18622;51.998;10.440;2022-09-01T02:51:15;11.30;93.50
32107;DHT22;18622;51.998;10.440;2022-09-01T02:53:44;11.30;93.50
32107;DHT22;18622;51.998;10.440;2022-09-01T02:56:14;11.30;93.50
32107;DHT22;18622;51.998;10.440;2022-09-01T02:58:44;11.30;93.60
32107;DHT22;18622;51.998;10.440;2022-09-01T03:30:46;11.10;94.10
32107;DHT22;18622;51.998;10.440;2022-09-01T03:33:15;11.00;94.10
32107;DHT22;18622;51.998;10.440;2022-09-01T03:35:44;11.00;94.20
32107;DHT22;18622;51.998;10.440;2022-09-01T03:38:12;11.00;94.20
32107;DHT22;18622;51.998;10.440;2022-09-01T03:40:41;11.00;94.30
32107;DHT22;18622;51.998;10.440;2022-09-01T03:43:10;11.00;94.30
32107;DHT22;18622;51.998;10.440;2022-09-01T03:45:40;10.90;94.30
32107;DHT22;18622;51.998;10.440;2022-09-01T03:48:08;10.90;94.40
32107;DHT22;18622;51.998;10.440;2022-09-01T03:50:40;10.90;94.50
32107;DHT22;18622;51.998;10.440;2022-09-01T03:53:11;10.90;94.60
32107;DHT22;18622;51.998;10.440;2022-09-01T03:55:39;10.90;94.70
32107;DHT22;18622;51.998;10.440;2022-09-01T03:58:09;10.90;94.80
32107;DHT22;18622;51.998;10.440;2022-09-01T04:00:38;10.90;94.80
32107;DHT22;18622;51.998;10.440;2022-09-01T04:03:07;10.90;94.90
32107;DHT22;18622;51.998;10.440;2022-09-01T04:05:37;10.80;94.60
32107;DHT22;18622;51.998;10.440;2022-09-01T04:08:07;10.80;94.70
32107;DHT22;18622;51.998;10.440;2022-09-01T04:10:42;10.80;95.00
32107;DHT22;18622;51.998;10.440;2022-09-01T04:13:12;10.80;95.00
32107;DHT22;18622;51.998;10.440;2022-09-01T04:15:39;10.80;95.00
32107;DHT22;18622;51.998;10.440;2022-09-01T04:18:07;10.70;95.20
32107;DHT22;18622;51.998;10.440;2022-09-01T04:20:40;10.80;95.30
32107;DHT22;18622;51.998;10.440;2022-09-01T04:23:32;10.70;95.20
32107;DHT22;18622;51.998;10.440;2022-09-01T04:26:03;10.70;95.20
32107;DHT22;18622;51.998;10.440;2022-09-01T04:28:32;10.80;95.30
32107;DHT22;18622;51.998;10.440;2022-09-01T04:31:03;10.80;95.40
32107;DHT22;18622;51.998;10.440;2022-09-01T04:33:36;10.70;95.40
32107;DHT22;18622;51.998;10.440;2022-09-01T04:36:14;10.70;95.50
32107;DHT22;18622;51.998;10.440;2022-09-01T04:38:43;10.70;95.50
32107;DHT22;18622;51.998;10.440;2022-09-01T04:41:11;10.70;95.50
32107;DHT22;18622;51.998;10.440;2022-09-01T04:43:40;10.80;95.50
32107;DHT22;18622;51.998;10.440;2022-09-01T04:46:08;10.70;95.50
32107;DHT22;18622;51.998;10.440;2022-09-01T04:48:38;10.80;95.60
32107;DHT22;18622;51.998;10.440;2022-09-01T04:51:08;10.80;95.50
32107;DHT22;18622;51.998;10.440;2022-09-01T04:53:37;10.80;95.50
32107;DHT22;18622;51.998;10.440;2022-09-01T04:56:08;10.80;95.50
32107;DHT22;18622;51.998;10.440;2022-09-01T04:58:39;10.80;95.60
32107;DHT22;18622;51.998;10.440;2022-09-01T05:01:17;10.80;95.60
32107;DHT22;18622;51.998;10.440;2022-09-01T05:03:46;10.80;95.60
32107;DHT22;18622;51.998;10.440;2022-09-01T05:06:17;10.80;95.60
32107;DHT22;18622;51.998;10.440;2022-09-01T05:08:45;10.80;95.70
32107;DHT22;18622;51.998;10.440;2022-09-01T05:11:14;10.90;95.70
32107;DHT22;18622;51.998;10.440;2022-09-01T05:13:47;10.90;95.70
32107;DHT22;18622;51.998;10.440;2022-09-01T05:16:17;10.90;95.80
32107;DHT22;18622;51.998;10.440;2022-09-01T05:18:48;11.00;95.80
32107;DHT22;18622;51.998;10.440;2022-09-01T05:21:21;11.00;95.80
32107;DHT22;18622;51.998;10.440;2022-09-01T05:23:50;11.00;95.90
32107;DHT22;18622;51.998;10.440;2022-09-01T05:26:31;11.10;96.00
32107;DHT22;18622;51.998;10.440;2022-09-01T05:29:02;11.20;96.10
32107;DHT22;18622;51.998;10.440;2022-09-01T09:07:52;23.30;64.70
32107;DHT22;18622;51.998;10.440;2022-09-01T09:15:53;24.40;58.70
32107;DHT22;18622;51.998;10.440;2022-09-01T09:26:39;25.90;53.80
32107;DHT22;18622;51.998;10.440;2022-09-01T09:29:07;26.40;52.60
32107;DHT22;18622;51.998;10.440;2022-09-01T09:31:37;26.90;51.90
32107;DHT22;18622;51.998;10.440;2022-09-01T09:36:49;27.90;49.60
32107;DHT22;18622;51.998;10.440;2022-09-01T09:39:17;28.20;46.90
32107;DHT22;18622;51.998;10.440;2022-09-01T09:42:01;28.50;45.90
32107;DHT22;18622;51.998;10.440;2022-09-01T09:44:30;28.80;44.60
32107;DHT22;18622;51.998;10.440;2022-09-01T09:46:58;29.20;44.70
32107;DHT22;18622;51.998;10.440;2022-09-01T09:49:31;29.60;43.50
32107;DHT22;18622;51.998;10.440;2022-09-01T09:54:41;30.20;42.20
32107;DHT22;18622;51.998;10.440;2022-09-01T09:57:12;30.50;41.20
32107;DHT22;18622;51.998;10.440;2022-09-01T10:02:27;31.20;39.40
32107;DHT22;18622;51.998;10.440;2022-09-01T10:04:58;31.30;39.70
32107;DHT22;18622;51.998;10.440;2022-09-01T10:07:34;31.30;39.00
32107;DHT22;18622;51.998;10.440;2022-09-01T10:12:56;31.70;38.20
32107;DHT22;18622;51.998;10.440;2022-09-01T10:15:29;31.90;38.10
32107;DHT22;18622;51.998;10.440;2022-09-01T10:18:12;32.20;36.70
32107;DHT22;18622;51.998;10.440;2022-09-01T10:20:48;32.40;35.00
32107;DHT22;18622;51.998;10.440;2022-09-01T10:23:14;32.60;35.70
32107;DHT22;18622;51.998;10.440;2022-09-01T10:25:42;32.90;35.20
32107;DHT22;18622;51.998;10.440;2022-09-01T10:28:16;33.20;34.80
32107;DHT22;18622;51.998;10.440;2022-09-01T10:30:46;33.50;35.40
32107;DHT22;18622;51.998;10.440;2022-09-01T10:33:16;33.70;33.80
32107;DHT22;18622;51.998;10.440;2022-09-01T10:35:47;33.80;34.60
32107;DHT22;18622;51.998;10.440;2022-09-01T10:38:26;34.10;33.10
32107;DHT22;18622;51.998;10.440;2022-09-01T10:40:57;34.30;33.10
32107;DHT22;18622;51.998;10.440;2022-09-01T10:43:42;34.60;31.90
32107;DHT22;18622;51.998;10.440;2022-09-01T10:48:56;35.00;30.60
32107;DHT22;18622;51.998;10.440;2022-09-01T10:53:56;35.70;30.00
32107;DHT22;18622;51.998;10.440;2022-09-01T10:56:39;36.00;31.30
32107;DHT22;18622;51.998;10.440;2022-09-01T13:22:48;32.40;30.90
32107;DHT22;18622;51.998;10.440;2022-09-01T13:25:18;33.50;29.60
32107;DHT22;18622;51.998;10.440;2022-09-01T13:27:47;35.00;28.80
32107;DHT22;18622;51.998;10.440;2022-09-01T13:30:17;35.20;28.80
32107;DHT22;18622;51.998;10.440;2022-09-01T13:32:49;35.00;29.20
32107;DHT22;18622;51.998;10.440;2022-09-01T13:35:19;34.80;29.30
32107;DHT22;18622;51.998;10.440;2022-09-01T13:37:48;34.40;28.40
32107;DHT22;18622;51.998;10.440;2022-09-01T13:40:18;33.50;29.10
32107;DHT22;18622;51.998;10.440;2022-09-01T13:42:49;32.70;30.40
32107;DHT22;18622;51.998;10.440;2022-09-01T13:45:20;32.30;30.10
32107;DHT22;18622;51.998;10.440;2022-09-01T13:47:50;32.10;31.00
32107;DHT22;18622;51.998;10.440;2022-09-01T13:50:20;31.60;31.20
32107;DHT22;18622;51.998;10.440;2022-09-01T13:52:51;32.10;31.20
32107;DHT22;18622;51.998;10.440;2022-09-01T13:55:29;33.60;28.60
32107;DHT22;18622;51.998;10.440;2022-09-01T13:57:54;35.50;28.50
32107;DHT22;18622;51.998;10.440;2022-09-01T14:00:27;37.10;27.70
32107;DHT22;18622;51.998;10.440;2022-09-01T14:02:57;38.00;27.20
32107;DHT22;18622;51.998;10.440;2022-09-01T14:05:28;38.00;27.00
32107;DHT22;18622;51.998;10.440;2022-09-01T14:07:57;38.30;27.30
32107;DHT22;18622;51.998;10.440;2022-09-01T14:10:28;38.90;25.80
32107;DHT22;18622;51.998;10.440;2022-09-01T14:12:58;38.30;26.50
32107;DHT22;18622;51.998;10.440;2022-09-01T14:15:26;37.00;26.90
32107;DHT22;18622;51.998;10.440;2022-09-01T14:17:55;35.70;28.30
32107;DHT22;18622;51.998;10.440;2022-09-01T14:20:24;34.70;28.60
32107;DHT22;18622;51.998;10.440;2022-09-01T14:22:52;33.90;28.80
32107;DHT22;18622;51.998;10.440;2022-09-01T14:25:22;33.10;30.00
32107;DHT22;18622;51.998;10.440;2022-09-01T14:27:49;32.60;29.70
32107;DHT22;18622;51.998;10.440;2022-09-01T14:30:19;32.10;30.00
32107;DHT22;18622;51.998;10.440;2022-09-01T14:32:48;32.40;29.70
32107;DHT22;18622;51.998;10.440;2022-09-01T14:35:18;33.50;29.40
32107;DHT22;18622;51.998;10.440;2022-09-01T14:37:46;35.20;28.30
32107;DHT22;18622;51.998;10.440;2022-09-01T14:40:15;36.90;25.40
32107;DHT22;18622;51.998;10.440;2022-09-01T14:42:44;37.70;26.40
32107;DHT22;18622;51.998;10.440;2022-09-01T14:45:16;37.60;26.70
32107;DHT22;18622;51.998;10.440;2022-09-01T14:47:46;36.60;27.00
32107;DHT22;18622;51.998;10.440;2022-09-01T14:50:15;35.40;27.70
32107;DHT22;18622;51.998;10.440;2022-09-01T14:52:43;34.30;28.10
32107;DHT22;18622;51.998;10.440;2022-09-01T14:55:11;33.50;29.00
32107;DHT22;18622;51.998;10.440;2022-09-01T14:57:39;32.60;28.90
32107;DHT22;18622;51.998;10.440;2022-09-01T15:00:09;32.00;29.60
32107;DHT22;18622;51.998;10.440;2022-09-01T15:02:39;31.40;30.00
32107;DHT22;18622;51.998;10.440;2022-09-01T15:05:08;30.80;29.70
32107;DHT22;18622;51.998;10.440;2022-09-01T15:07:37;30.50;30.20
32107;DHT22;18622;51.998;10.440;2022-09-01T15:10:06;30.90;30.60
32107;DHT22;18622;51.998;10.440;2022-09-01T15:12:34;32.10;29.00
32107;DHT22;18622;51.998;10.440;2022-09-01T15:15:05;33.30;27.30
32107;DHT22;18622;51.998;10.440;2022-09-01T15:17:32;34.10;28.00
32107;DHT22;18622;51.998;10.440;2022-09-01T15:20:01;34.90;27.40
32107;DHT22;18622;51.998;10.440;2022-09-01T15:22:47;35.50;26.00
32107;DHT22;18622;51.998;10.440;2022-09-01T15:25:16;35.90;25.40
32107;DHT22;18622;51.998;10.440;2022-09-01T15:27:44;36.10;25.40
32107;DHT22;18622;51.998;10.440;2022-09-01T15:30:12;36.00;26.30
32107;DHT22;18622;51.998;10.440;2022-09-01T15:32:45;36.20;25.80
32107;DHT22;18622;51.998;10.440;2022-09-01T15:35:14;36.30;26.20
32107;DHT22;18622;51.998;10.440;2022-09-01T15:37:41;36.40;26.30
32107;DHT22;18622;51.998;10.440;2022-09-01T15:40:09;36.70;26.50
32107;DHT22;18622;51.998;10.440;2022-09-01T15:42:37;37.20;26.80
32107;DHT22;18622;51.998;10.440;2022-09-01T15:45:11;37.50;26.70
32107;DHT22;18622;51.998;10.440;2022-09-01T15:47:39;37.10;26.30
32107;DHT22;18622;51.998;10.440;2022-09-01T15:50:09;36.40;27.00
32107;DHT22;18622;51.998;10.440;2022-09-01T15:53:07;35.30;27.30
32107;DHT22;18622;51.998;10.440;2022-09-01T15:55:20;34.00;27.30
32107;DHT22;18622;51.998;10.440;2022-09-01T15:57:49;32.60;28.10
32107;DHT22;18622;51.998;10.440;2022-09-01T16:00:23;31.40;28.90
32107;DHT22;18622;51.998;10.440;2022-09-01T16:02:47;30.30;29.60
32107;DHT22;18622;51.998;10.440;2022-09-01T16:05:14;29.50;29.90
32107;DHT22;18622;51.998;10.440;2022-09-01T16:07:43;28.70;30.70
32107;DHT22;18622;51.998;10.440;2022-09-01T16:10:11;28.30;31.60
32107;DHT22;18622;51.998;10.440;2022-09-01T16:12:41;28.70;32.50
32107;DHT22;18622;51.998;10.440;2022-09-01T16:15:12;29.70;31.90
32107;DHT22;18622;51.998;10.440;2022-09-01T16:18:19;30.70;30.90
32107;DHT22;18622;51.998;10.440;2022-09-01T16:21:12;31.50;30.20
32107;DHT22;18622;51.998;10.440;2022-09-01T16:23:46;32.60;29.80
32107;DHT22;18622;51.998;10.440;2022-09-01T16:26:16;33.20;29.40
32107;DHT22;18622;51.998;10.440;2022-09-01T16:28:49;33.70;28.50
32107;DHT22;18622;51.998;10.440;2022-09-01T16:31:28;33.80;28.50
32107;DHT22;18622;51.998;10.440;2022-09-01T16:33:54;33.20;28.80
32107;DHT22;18622;51.998;10.440;2022-09-01T16:39:31;31.10;29.50
32107;DHT22;18622;51.998;10.440;2022-09-01T16:44:43;29.20;31.40
32107;DHT22;18622;51.998;10.440;2022-09-01T16:47:33;28.40;31.40
32107;DHT22;18622;51.998;10.440;2022-09-01T16:50:35;27.80;32.40
32107;DHT22;18622;51.998;10.440;2022-09-01T16:55:36;26.70;34.00
32107;DHT22;18622;51.998;10.440;2022-09-01T17:06:30;25.00;36.50
32107;DHT22;18622;51.998;10.440;2022-09-01T17:09:10;24.60;37.40
32107;DHT22;18622;51.998;10.440;2022-09-01T17:11:45;24.30;37.70
32107;DHT22;18622;51.998;10.440;2022-09-01T17:14:14;24.00;37.90
32107;DHT22;18622;51.998;10.440;2022-09-01T17:16:44;23.70;38.90
32107;DHT22;18622;51.998;10.440;2022-09-01T17:19:18;23.50;39.20
32107;DHT22;18622;51.998;10.440;2022-09-01T17:21:55;23.20;40.30
32107;DHT22;18622;51.998;10.440;2022-09-01T17:24:39;22.90;40.50
32107;DHT22;18622;51.998;10.440;2022-09-01T17:27:18;22.70;41.30
32107;DHT22;18622;51.998;10.440;2022-09-01T17:29:44;22.40;41.50
32107;DHT22;18622;51.998;10.440;2022-09-01T17:35:23;21.90;42.20
32107;DHT22;18622;51.998;10.440;2022-09-01T17:38:12;21.60;42.80
32107;DHT22;18622;51.998;10.440;2022-09-01T17:40:54;21.40;42.80
32107;DHT22;18622;51.998;10.440;2022-09-01T17:43:55;21.20;43.20
32107;DHT22;18622;51.998;10.440;2022-09-01T17:46:44;21.00;43.60
32107;DHT22;18622;51.998;10.440;2022-09-01T17:55:07;20.40;45.10
32107;DHT22;18622;51.998;10.440;2022-09-01T17:57:54;20.20;45.50
32107;DHT22;18622;51.998;10.440;2022-09-01T18:00:32;20.00;46.00
32107;DHT22;18622;51.998;10.440;2022-09-01T18:03:22;19.80;46.50
32107;DHT22;18622;51.998;10.440;2022-09-01T18:05:58;19.60;47.00
32107;DHT22;18622;51.998;10.440;2022-09-01T18:08:30;19.40;47.50
32107;DHT22;18622;51.998;10.440;2022-09-01T18:11:17;19.30;48.60
32107;DHT22;18622;51.998;10.440;2022-09-01T18:14:13;19.10;50.10
32107;DHT22;18622;51.998;10.440;2022-09-01T18:16:59;18.90;50.30
32107;DHT22;18622;51.998;10.440;2022-09-01T18:19:28;18.70;51.80
32107;DHT22;18622;51.998;10.440;2022-09-01T18:21:59;18.50;52.30
32107;DHT22;18622;51.998;10.440;2022-09-01T18:27:05;18.10;53.40
32107;DHT22;18622;51.998;10.440;2022-09-01T18:29:34;18.00;53.50
32107;DHT22;18622;51.998;10.440;2022-09-01T18:32:19;17.80;53.80
32107;DHT22;18622;51.998;10.440;2022-09-01T18:45:51;17.10;56.30
32107;DHT22;18622;51.998;10.440;2022-09-01T18:51:36;16.80;57.00
32107;DHT22;18622;51.998;10.440;2022-09-01T18:54:08;16.70;57.50
32107;DHT22;18622;51.998;10.440;2022-09-01T18:57:04;16.60;57.80
32107;DHT22;18622;51.998;10.440;2022-09-01T19:13:36;16.00;60.90
32107;DHT22;18622;51.998;10.440;2022-09-01T19:16:10;15.90;61.40
32107;DHT22;18622;51.998;10.440;2022-09-01T19:18:44;15.80;61.40
32107;DHT22;18622;51.998;10.440;2022-09-01T19:21:19;15.70;61.80
32107;DHT22;18622;51.998;10.440;2022-09-01T19:23:59;15.60;62.30
32107;DHT22;18622;51.998;10.440;2022-09-01T19:26:28;15.50;63.10
32107;DHT22;18622;51.998;10.440;2022-09-01T19:29:00;15.50;63.10
32107;DHT22;18622;51.998;10.440;2022-09-01T19:31:38;15.40;63.20
32107;DHT22;18622;51.998;10.440;2022-09-01T19:36:46;15.20;64.20
32107;DHT22;18622;51.998;10.440;2022-09-01T19:39:22;15.20;64.60
32107;DHT22;18622;51.998;10.440;2022-09-01T19:44:57;15.10;65.40
32107;DHT22;18622;51.998;10.440;2022-09-01T19:47:17;15.00;65.50
32107;DHT22;18622;51.998;10.440;2022-09-01T19:49:51;15.00;65.90
32107;DHT22;18622;51.998;10.440;2022-09-01T19:53:00;14.90;66.40
32107;DHT22;18622;51.998;10.440;2022-09-01T19:55:50;14.90;66.70
32107;DHT22;18622;51.998;10.440;2022-09-01T19:58:24;14.80;67.00
32107;DHT22;18622;51.998;10.440;2022-09-01T20:01:07;14.70;67.10
32107;DHT22;18622;51.998;10.440;2022-09-01T20:03:38;14.70;67.30
32107;DHT22;18622;51.998;10.440;2022-09-01T20:09:02;14.70;67.70
32107;DHT22;18622;51.998;10.440;2022-09-01T20:11:55;14.60;68.10
32107;DHT22;18622;51.998;10.440;2022-09-01T20:14:47;14.60;68.30
32107;DHT22;18622;51.998;10.440;2022-09-01T20:17:28;14.60;68.50
32107;DHT22;18622;51.998;10.440;2022-09-01T20:20:16;14.50;68.60
32107;DHT22;18622;51.998;10.440;2022-09-01T20:22:50;14.50;68.80
32107;DHT22;18622;51.998;10.440;2022-09-01T20:25:21;14.40;68.90
32107;DHT22;18622;51.998;10.440;2022-09-01T20:30:25;14.30;69.30
32107;DHT22;18622;51.998;10.440;2022-09-01T20:33:01;14.30;69.30
32107;DHT22;18622;51.998;10.440;2022-09-01T20:35:47;14.20;69.70
32107;DHT22;18622;51.998;10.440;2022-09-01T20:38:23;14.20;70.00
32107;DHT22;18622;51.998;10.440;2022-09-01T20:43:50;14.10;70.40
32107;DHT22;18622;51.998;10.440;2022-09-01T20:46:19;14.10;70.60
32107;DHT22;18622;51.998;10.440;2022-09-01T20:48:47;14.10;71.00
32107;DHT22;18622;51.998;10.440;2022-09-01T20:51:21;14.00;71.00
32107;DHT22;18622;51.998;10.440;2022-09-01T20:56:44;14.00;71.30
32107;DHT22;18622;51.998;10.440;2022-09-01T20:59:39;13.90;71.70
